createdAt,value
2023-02-03T00:02:27.115Z,101203.91
2023-02-03T00:05:30.488Z,101215.19
2023-02-03T00:08:33.720Z,101205.44
2023-02-03T00:11:36.031Z,101218.28
2023-02-03T00:14:38.439Z,101224.28
2023-02-03T00:17:41.421Z,101221.59
2023-02-03T00:20:44.280Z,101215.13
2023-02-03T00:23:46.926Z,101229.03
2023-02-03T00:26:50.744Z,101246.13
2023-02-03T00:29:53.375Z,101245.63
2023-02-03T00:32:56.595Z,101252.84
2023-02-03T00:36:07.846Z,101257.69
2023-02-03T00:39:09.895Z,101264.31
2023-02-03T00:42:13.587Z,101277.16
2023-02-03T00:45:16.657Z,101275.50
2023-02-03T00:48:19.939Z,101277.47
2023-02-03T00:51:22.196Z,101271.84
2023-02-03T00:54:24.196Z,101267.69
2023-02-03T00:57:26.707Z,101289.44
2023-02-03T01:00:29.145Z,101288.28
2023-02-03T01:03:33.175Z,101281.38
2023-02-03T01:06:35.746Z,101295.25
2023-02-03T01:09:38.576Z,101295.72
2023-02-03T01:12:40.918Z,101306.25
2023-02-03T01:15:49.251Z,101299.13
2023-02-03T01:18:52.327Z,101310.59
2023-02-03T01:21:54.547Z,101305.81
2023-02-03T01:24:57.766Z,101300.81
2023-02-03T01:28:00.111Z,101312.19
2023-02-03T01:31:18.903Z,101313.50
2023-02-03T01:34:21.064Z,101303.91
2023-02-03T01:37:23.771Z,101309.63
2023-02-03T01:40:26.472Z,101306.78
2023-02-03T01:43:34.593Z,101308.16
2023-02-03T01:46:46.911Z,101315.53
2023-02-03T01:50:01.342Z,101323.84
2023-02-03T01:53:10.104Z,101318.69
2023-02-03T01:56:12.743Z,101322.00
2023-02-03T01:59:19.980Z,101318.78
2023-02-03T02:02:22.993Z,101328.19
2023-02-03T02:05:57.043Z,101322.53
2023-02-03T02:09:01.338Z,101330.88
2023-02-03T02:12:03.901Z,101326.25
2023-02-03T02:15:06.764Z,101327.19
2023-02-03T02:18:16.606Z,101310.84
2023-02-03T02:21:31.537Z,101317.75
2023-02-03T02:24:40.052Z,101316.84
2023-02-03T02:28:10.654Z,101311.50
2023-02-03T02:31:40.697Z,101319.06
2023-02-03T02:34:51.998Z,101311.84
2023-02-03T02:38:17.181Z,101315.19
2023-02-03T02:41:24.956Z,101317.09
2023-02-03T02:44:32.239Z,101324.75
2023-02-03T02:47:36.838Z,101313.78
2023-02-03T02:50:43.411Z,101329.38
2023-02-03T02:53:59.767Z,101327.94
2023-02-03T02:57:04.724Z,101327.28
2023-02-03T03:00:08.483Z,101340.09
2023-02-03T03:03:14.007Z,101334.00
2023-02-03T03:06:33.354Z,101338.69
2023-02-03T03:09:48.806Z,101336.84
2023-02-03T03:12:56.840Z,101335.09
2023-02-03T03:16:01.925Z,101335.19
2023-02-03T03:19:15.323Z,101344.16
2023-02-03T03:22:22.296Z,101332.41
2023-02-03T03:25:31.605Z,101336.13
2023-02-03T03:28:52.272Z,101321.63
2023-02-03T03:31:54.969Z,101327.53
2023-02-03T03:34:57.621Z,101315.78
2023-02-03T03:38:32.094Z,101320.78
2023-02-03T03:41:53.594Z,101324.75
2023-02-03T03:45:20.615Z,101327.16
2023-02-03T03:48:30.104Z,101325.50
2023-02-03T03:51:45.408Z,101324.75
2023-02-03T03:54:50.120Z,101333.81
2023-02-03T03:58:12.830Z,101324.66
2023-02-03T04:01:16.958Z,101322.75
2023-02-03T04:04:28.416Z,101331.22
2023-02-03T04:07:42.525Z,101322.06
2023-02-03T04:10:45.177Z,101311.94
2023-02-03T04:13:47.483Z,101324.56
2023-02-03T04:16:50.112Z,101308.41
2023-02-03T04:19:52.516Z,101314.16
2023-02-03T04:22:54.780Z,101301.69
2023-02-03T04:25:57.418Z,101311.00
2023-02-03T04:29:00.363Z,101301.31
2023-02-03T04:32:03.009Z,101302.91
2023-02-03T04:35:07.631Z,101302.31
2023-02-03T04:38:10.273Z,101309.44
2023-02-03T04:41:12.473Z,101295.91
2023-02-03T04:44:15.093Z,101316.56
2023-02-03T04:47:19.336Z,101320.34
2023-02-03T04:50:23.200Z,101311.59
2023-02-03T04:53:25.784Z,101305.41
2023-02-03T04:56:28.205Z,101302.63
2023-02-03T04:59:31.051Z,101301.34
2023-02-03T05:02:33.649Z,101299.66
2023-02-03T05:05:36.108Z,101293.59
2023-02-03T05:08:38.465Z,101301.59
2023-02-03T05:11:40.750Z,101286.00
2023-02-03T05:14:43.192Z,101286.75
2023-02-03T05:17:45.336Z,101291.91
2023-02-03T05:20:47.805Z,101293.75
2023-02-03T05:23:50.052Z,101297.34
2023-02-03T05:26:52.896Z,101312.03
2023-02-03T05:29:55.016Z,101308.41
2023-02-03T05:32:57.435Z,101306.09
2023-02-03T05:35:59.636Z,101303.16
2023-02-03T05:39:02.473Z,101309.63
2023-02-03T05:42:04.862Z,101310.66
2023-02-03T05:45:07.119Z,101300.41
2023-02-03T05:48:09.685Z,101309.91
2023-02-03T05:51:11.992Z,101313.16
2023-02-03T05:54:14.093Z,101312.59
2023-02-03T05:57:16.350Z,101316.94
2023-02-03T06:00:21.829Z,101313.34
2023-02-03T06:03:24.455Z,101317.09
2023-02-03T06:06:33.110Z,101313.78
2023-02-03T06:09:36.614Z,101311.31
2023-02-03T06:12:39.490Z,101321.28
2023-02-03T06:15:45.304Z,101312.03
2023-02-03T06:18:48.365Z,101311.50
2023-02-03T06:21:50.827Z,101323.84
2023-02-03T06:24:53.581Z,101320.25
2023-02-03T06:27:55.852Z,101327.53
2023-02-03T06:30:58.177Z,101330.69
2023-02-03T06:34:02.670Z,101327.94
2023-02-03T06:37:04.903Z,101331.50
2023-02-03T06:40:08.195Z,101325.69
2023-02-03T06:43:13.690Z,101334.94
2023-02-03T06:46:19.786Z,101334.78
2023-02-03T06:49:28.934Z,101331.78
2023-02-03T06:52:35.109Z,101315.44
2023-02-03T06:55:37.954Z,101323.28
2023-02-03T06:58:43.065Z,101326.69
2023-02-03T07:02:03.252Z,101320.28
2023-02-03T07:05:41.222Z,101297.25
2023-02-03T07:18:02.712Z,101324.19
2023-02-03T07:24:44.904Z,101292.97
2023-02-03T07:27:54.678Z,101318.81
2023-02-03T07:31:11.620Z,101321.72
2023-02-03T07:34:17.672Z,101319.50
2023-02-03T07:37:42.315Z,101319.91
2023-02-03T07:40:50.395Z,101334.94
2023-02-03T07:44:14.765Z,101326.06
2023-02-03T07:47:24.505Z,101342.16
2023-02-03T07:50:32.997Z,101340.00
2023-02-03T07:53:41.902Z,101344.06
2023-02-03T08:02:10.923Z,101339.91
2023-02-03T08:10:01.734Z,101349.72
2023-02-03T08:13:43.003Z,101313.31
2023-02-03T08:22:05.475Z,101327.47
2023-02-03T08:29:48.952Z,101349.78
2023-02-03T08:33:15.149Z,101317.31
2023-02-03T08:36:48.519Z,101334.09
2023-02-03T08:40:10.733Z,101326.38
2023-02-03T08:43:18.304Z,101340.25
2023-02-03T08:47:00.866Z,101362.16
2023-02-03T08:50:32.208Z,101362.88
2023-02-03T08:53:55.903Z,101368.38
2023-02-03T08:57:31.117Z,101336.09
2023-02-03T09:01:59.772Z,101363.22
2023-02-03T09:19:06.009Z,101375.16
2023-02-03T09:22:26.648Z,101348.59
2023-02-03T09:25:44.520Z,101375.06
2023-02-03T09:42:31.885Z,101349.22
2023-02-03T09:46:43.870Z,101309.59
2023-02-03T09:50:21.985Z,101318.81
2023-02-03T09:57:28.972Z,101305.44
2023-02-03T10:06:12.948Z,101298.44
2023-02-03T10:10:35.205Z,101283.13
2023-02-03T10:22:02.474Z,101221.88
2023-02-03T10:29:55.810Z,101204.72
2023-02-03T10:33:32.119Z,101216.63
2023-02-03T10:36:59.021Z,101213.53
2023-02-03T10:40:05.480Z,101202.25
2023-02-03T10:43:33.727Z,101203.00
2023-02-03T10:47:23.042Z,101176.31
2023-02-03T10:51:01.031Z,101173.81
2023-02-03T10:54:30.642Z,101181.28
2023-02-03T10:57:44.340Z,101180.06
2023-02-03T11:14:39.537Z,101112.16
2023-02-03T11:18:52.745Z,101125.41
2023-02-03T11:22:13.706Z,101066.84
2023-02-03T11:26:01.995Z,101120.16
2023-02-03T11:29:57.193Z,101105.41
2023-02-03T11:36:57.696Z,101093.75
2023-02-03T11:40:22.524Z,101095.09
2023-02-03T11:43:59.391Z,101082.84
2023-02-03T11:47:57.426Z,101039.44
2023-02-03T11:51:39.888Z,101050.88
2023-02-03T11:54:55.439Z,101040.81
2023-02-03T11:58:27.024Z,101036.31
2023-02-03T12:02:25.527Z,101023.88
2023-02-03T12:06:10.079Z,101014.66
2023-02-03T12:09:58.826Z,101006.81
2023-02-03T12:14:35.778Z,100983.69
2023-02-03T12:26:56.945Z,100959.81
2023-02-03T12:30:15.659Z,100940.16
2023-02-03T12:33:59.248Z,100895.13
2023-02-03T12:37:47.806Z,100926.66
2023-02-03T12:41:00.479Z,100910.34
2023-02-03T12:44:14.713Z,100911.66
2023-02-03T12:47:23.739Z,100892.81
2023-02-03T12:51:16.629Z,100887.94
2023-02-03T12:55:01.253Z,100876.72
2023-02-03T12:58:11.092Z,100838.81
2023-02-03T13:02:10.865Z,100855.94
2023-02-03T13:10:11.790Z,100840.28
2023-02-03T13:13:44.863Z,100812.78
2023-02-03T13:17:01.981Z,100812.78
2023-02-03T13:20:23.877Z,100816.00
2023-02-03T13:23:27.762Z,100804.56
2023-02-03T13:27:17.591Z,100789.47
2023-02-03T13:31:02.209Z,100774.09
2023-02-03T13:34:26.290Z,100784.41
2023-02-03T13:38:11.505Z,100763.66
2023-02-03T13:41:27.249Z,100774.50
2023-02-03T13:45:02.060Z,100748.47
2023-02-03T13:48:20.783Z,100757.03
2023-02-03T13:52:07.888Z,100741.00
2023-02-03T13:55:39.693Z,100738.41
2023-02-03T13:58:42.449Z,100728.38
2023-02-03T14:01:46.646Z,100727.47
2023-02-03T14:04:54.411Z,100714.84
2023-02-03T14:11:47.237Z,100688.78
2023-02-03T14:14:52.693Z,100702.63
2023-02-03T14:17:57.132Z,100705.44
2023-02-03T14:21:12.866Z,100692.09
2023-02-03T14:24:16.793Z,100685.06
2023-02-03T14:27:23.773Z,100680.16
2023-02-03T14:30:29.084Z,100683.00
2023-02-03T14:33:49.547Z,100677.69
2023-02-03T14:36:55.994Z,100675.25
2023-02-03T14:40:42.551Z,100674.16
2023-02-03T14:44:03.196Z,100664.84
2023-02-03T14:47:18.979Z,100653.00
2023-02-03T14:50:58.870Z,100641.97
2023-02-03T14:54:06.673Z,100639.97
2023-02-03T14:57:27.879Z,100641.91
2023-02-03T15:00:34.323Z,100636.19
2023-02-03T15:03:38.055Z,100633.69
2023-02-03T15:06:46.193Z,100630.38
2023-02-03T15:09:51.640Z,100615.31
2023-02-03T15:12:56.439Z,100607.81
2023-02-03T15:16:18.512Z,100597.06
2023-02-03T15:19:24.690Z,100596.41
2023-02-03T15:22:29.708Z,100591.34
2023-02-03T15:25:33.247Z,100595.91
2023-02-03T15:28:35.662Z,100585.50
2023-02-03T15:31:46.133Z,100568.09
2023-02-03T15:34:51.028Z,100566.94
2023-02-03T15:37:59.771Z,100564.44
2023-02-03T15:41:04.895Z,100558.78
2023-02-03T15:44:24.270Z,100563.28
2023-02-03T15:47:40.518Z,100558.56
2023-02-03T15:50:44.925Z,100552.56
2023-02-03T15:53:57.108Z,100554.09
2023-02-03T15:57:05.546Z,100543.53
2023-02-03T16:00:32.824Z,100542.59
2023-02-03T16:03:38.462Z,100533.41
2023-02-03T16:06:45.127Z,100547.75
2023-02-03T16:09:48.073Z,100551.63
2023-02-03T16:12:51.118Z,100536.38
2023-02-03T16:16:02.526Z,100525.06
2023-02-03T16:19:12.561Z,100526.94
2023-02-03T16:22:40.917Z,100514.69
2023-02-03T16:26:01.429Z,100508.34
2023-02-03T16:29:22.987Z,100499.97
2023-02-03T16:32:43.556Z,100494.47
2023-02-03T16:36:03.871Z,100491.66
2023-02-03T16:39:30.274Z,100484.84
2023-02-03T16:42:59.146Z,100474.38
2023-02-03T16:46:20.476Z,100464.97
2023-02-03T16:49:41.620Z,100462.94
2023-02-03T16:52:44.909Z,100454.72
2023-02-03T16:55:47.357Z,100448.03
2023-02-03T16:58:49.762Z,100438.84
2023-02-03T17:01:51.811Z,100420.97
2023-02-03T17:04:53.883Z,100416.50
2023-02-03T17:07:55.973Z,100396.44
2023-02-03T17:11:04.984Z,100395.88
2023-02-03T17:14:07.060Z,100393.41
2023-02-03T17:17:09.030Z,100383.13
2023-02-03T17:20:11.752Z,100391.41
2023-02-03T17:23:16.561Z,100381.44
2023-02-03T17:26:19.101Z,100381.84
2023-02-03T17:29:22.092Z,100373.25
2023-02-03T17:32:25.090Z,100371.31
2023-02-03T17:35:29.487Z,100379.50
2023-02-03T17:38:36.170Z,100374.03
2023-02-03T17:54:57.700Z,100337.06
2023-02-03T17:58:00.220Z,100323.69
2023-02-03T18:01:18.565Z,100318.63
2023-02-03T18:04:20.804Z,100321.91
2023-02-03T18:07:27.392Z,100322.75
2023-02-03T18:10:30.199Z,100313.63
2023-02-03T18:13:40.838Z,100306.34
2023-02-03T18:16:43.717Z,100299.22
2023-02-03T18:19:49.286Z,100296.06
2023-02-03T18:22:57.011Z,100292.75
2023-02-03T18:26:02.034Z,100290.50
2023-02-03T18:29:05.546Z,100292.75
2023-02-03T18:32:08.099Z,100268.31
2023-02-03T18:35:14.048Z,100270.78
2023-02-03T18:38:16.900Z,100270.53
2023-02-03T18:41:22.146Z,100250.47
2023-02-03T18:44:26.557Z,100267.25
2023-02-03T18:47:29.415Z,100262.66
2023-02-03T18:50:33.081Z,100270.44
2023-02-03T18:53:36.290Z,100278.53
2023-02-03T18:56:39.360Z,100278.31
2023-02-03T18:59:41.824Z,100288.16
2023-02-03T19:02:44.733Z,100278.88
2023-02-03T19:05:47.737Z,100282.97
2023-02-03T19:08:51.564Z,100300.34
2023-02-03T19:11:57.167Z,100294.47
2023-02-03T19:15:00.145Z,100267.69
2023-02-03T19:18:03.317Z,100256.47
2023-02-03T19:21:05.952Z,100257.28
2023-02-03T19:24:08.737Z,100255.94
2023-02-03T19:27:11.749Z,100240.91
2023-02-03T19:30:14.620Z,100247.75
2023-02-03T19:33:17.186Z,100254.44
2023-02-03T19:36:19.863Z,100270.13
2023-02-03T19:39:22.281Z,100265.25
2023-02-03T19:42:24.758Z,100220.28
2023-02-03T19:45:27.523Z,100238.03
2023-02-03T19:48:30.093Z,100240.91
2023-02-03T19:51:34.821Z,100245.94
2023-02-03T19:54:37.571Z,100240.47
2023-02-03T19:57:41.303Z,100229.53
2023-02-03T20:00:45.015Z,100232.41
2023-02-03T20:03:47.922Z,100243.31
2023-02-03T20:06:50.690Z,100254.25
2023-02-03T20:09:53.026Z,100252.09
2023-02-03T20:12:55.708Z,100245.41
2023-02-03T20:15:59.263Z,100252.91
2023-02-03T20:19:04.180Z,100240.47
2023-02-03T20:22:06.880Z,100226.53
2023-02-03T20:25:09.346Z,100223.81
2023-02-03T20:28:12.135Z,100218.38
2023-02-03T20:31:14.794Z,100226.28
2023-02-03T20:34:17.510Z,100238.03
2023-02-03T20:37:19.900Z,100228.88
2023-02-03T20:40:24.603Z,100214.78
2023-02-03T20:43:28.513Z,100210.97
2023-02-03T20:46:31.197Z,100223.38
2023-02-03T20:49:34.051Z,100212.63
2023-02-03T20:52:36.374Z,100195.41
2023-02-03T20:55:38.837Z,100201.44
2023-02-03T20:58:43.671Z,100196.50
2023-02-03T21:01:46.927Z,100186.81
2023-02-03T21:05:00.467Z,100183.41
2023-02-03T21:08:11.420Z,100188.44
2023-02-03T21:11:16.646Z,100194.06
2023-02-03T21:14:31.694Z,100213.44
2023-02-03T21:17:36.002Z,100223.31
2023-02-03T21:20:38.862Z,100228.19
2023-02-03T21:23:45.584Z,100225.72
2023-02-03T21:26:49.829Z,100221.22
2023-02-03T21:29:56.736Z,100239.53
2023-02-03T21:32:59.768Z,100239.41
2023-02-03T21:36:02.319Z,100231.34
2023-02-03T21:39:23.914Z,100234.19
2023-02-03T21:42:41.317Z,100269.84
2023-02-03T21:45:44.548Z,100269.44
2023-02-03T21:49:05.487Z,100281.34
2023-02-03T21:52:13.368Z,100267.25
2023-02-03T21:55:16.149Z,100266.97
2023-02-03T21:58:39.570Z,100260.03
2023-02-03T22:01:42.025Z,100247.19
2023-02-03T22:04:44.781Z,100259.19
2023-02-03T22:07:46.842Z,100261.50
2023-02-03T22:10:49.856Z,100266.84
2023-02-03T22:13:52.068Z,100270.97
2023-02-03T22:16:55.402Z,100267.94
2023-02-03T22:19:58.160Z,100275.28
2023-02-03T22:23:00.483Z,100264.94
2023-02-03T22:26:02.734Z,100270.09
2023-02-03T22:29:05.915Z,100283.94
2023-02-03T22:32:08.170Z,100281.47
2023-02-03T22:35:10.932Z,100284.88
2023-02-03T22:38:13.015Z,100289.53
2023-02-03T22:41:15.648Z,100304.69
2023-02-03T22:44:18.516Z,100306.09
2023-02-03T22:47:20.759Z,100327.09
2023-02-03T22:50:34.692Z,100329.69
2023-02-03T22:53:39.611Z,100329.69
2023-02-03T22:56:41.772Z,100328.88
2023-02-03T22:59:43.813Z,100327.94
2023-02-03T23:02:46.992Z,100312.91
2023-02-03T23:05:50.802Z,100329.56
2023-02-03T23:08:53.007Z,100314.00
2023-02-03T23:11:55.091Z,100308.81
2023-02-03T23:14:57.141Z,100298.84
2023-02-03T23:17:59.194Z,100298.03
2023-02-03T23:21:01.453Z,100274.53
2023-02-03T23:24:03.712Z,100279.44
2023-02-03T23:27:06.068Z,100293.09
2023-02-03T23:30:09.058Z,100286.25
2023-02-03T23:33:11.511Z,100290.81
2023-02-03T23:36:13.672Z,100281.38
2023-02-03T23:39:16.215Z,100264.28
2023-02-03T23:42:18.887Z,100268.66
2023-02-03T23:45:21.144Z,100268.66
2023-02-03T23:48:23.190Z,100271.38
2023-02-03T23:51:26.361Z,100263.59
2023-02-03T23:54:28.549Z,100266.88
2023-02-03T23:57:30.878Z,100259.50
